Stations météo

réclame
Mon MeteoGroup
Malaga,Cmt, Espagne (8481): Température de l'air & dewpoint: 14.01.2019 12:00:00 - 20.01.2019 12:00:00 (CET)Malaga,Cmt, Espagne (8481): Vitesse du vent & gusts: 14.01.2019 12:00:00 - 20.01.2019 12:00:00 (CET)Malaga,Cmt, Espagne (8481): Direction du vent: 14.01.2019 12:00:00 - 20.01.2019 12:00:00 (CET)Malaga,Cmt, Espagne (8481): reduced air pressure: 14.01.2019 12:00:00 - 20.01.2019 12:00:00 (CET)Malaga,Cmt, Espagne (8481): Quantités de précipitations: 14.01.2019 12:00:00 - 20.01.2019 12:00:00 (CET)
Date & Time tt [°C] td [°C] ff [km/h] ff [knt] fx [km/h] fx [knt] dd ppp [hPa] rr [mm]
20.01.2019 12:00:00 - - - - - - - - -
20.01.2019 11:00:00 13,7 9,2 16 9 39 21 WNW 1014,0 0,0
20.01.2019 10:00:00 13,1 11,3 10 5 23 12 WNW 1013,1 0,1
20.01.2019 09:00:00 11,9 9,7 3 1 8 4 W 1013,1 0,0
20.01.2019 08:00:00 11,7 9,8 4 2 9 5 NW 1012,5 0,0
20.01.2019 07:00:00 11,6 9,3 3 1 13 7 WSW 1012,6 -
20.01.2019 06:00:00 12,5 11,1 5 3 16 9 WNW 1013,0 0,0
20.01.2019 05:00:00 11,6 11,1 5 3 13 7 WNW 1013,3 0,0
20.01.2019 04:00:00 11,3 10,9 7 4 15 8 WNW 1013,7 0,0
20.01.2019 03:00:00 11,4 10,8 8 4 12 6 W 1014,0 0,3
20.01.2019 02:00:00 11,9 11,3 7 4 13 7 NNE 1014,5 0,1
20.01.2019 01:00:00 11,3 10,0 2 1 8 5 SW 1015,6 -
20.01.2019 00:00:00 12,3 10,5 1 1 9 5 N 1016,3 0,4
19.01.2019 23:00:00 12,2 9,8 1 1 5 3 NE 1016,6 0,0
19.01.2019 22:00:00 12,1 9,2 1 1 8 4 WSW 1017,1 0,0
19.01.2019 21:00:00 12,1 8,8 0 0 8 5 N 1017,8 0,0
19.01.2019 20:00:00 13,0 8,9 4 2 12 6 W 1018,0 0,0
19.01.2019 19:00:00 13,3 8,5 6 3 15 8 NW 1018,0 -
19.01.2019 18:00:00 14,0 8,0 8 4 19 10 NW 1017,9 0,0
19.01.2019 17:00:00 14,2 7,7 5 3 23 12 NW 1017,9 0,0
19.01.2019 16:00:00 14,2 7,3 15 8 27 14 WNW 1018,0 0,0
19.01.2019 15:00:00 14,3 7,8 12 6 32 18 WNW 1018,4 0,0
19.01.2019 14:00:00 13,8 8,4 16 9 29 16 WNW 1018,9 0,0
19.01.2019 13:00:00 13,1 9,7 13 7 24 13 SW 1019,8 -
19.01.2019 12:00:00 11,7 10,9 13 7 23 12 W 1020,7 0,0
19.01.2019 11:00:00 10,6 9,8 8 4 18 10 W 1020,7 0,0
19.01.2019 10:00:00 9,9 8,7 4 2 13 7 NNW 1020,4 0,2
19.01.2019 09:00:00 10,5 7,1 6 4 13 7 W 1020,4 0,0
19.01.2019 08:00:00 10,6 6,5 5 3 13 7 WNW 1020,1 0,0
19.01.2019 07:00:00 10,8 5,6 8 4 14 8 W 1019,9 -
19.01.2019 06:00:00 11,6 4,6 6 4 18 10 WNW 1019,9 0,0
19.01.2019 05:00:00 12,2 4,1 7 4 24 13 NW 1020,4 0,0
19.01.2019 04:00:00 12,2 3,6 6 3 18 10 NW 1020,6 0,0
19.01.2019 03:00:00 12,3 3,6 1 1 18 10 NNW 1020,8 0,0
19.01.2019 02:00:00 12,6 3,8 10 5 22 12 WNW 1020,8 0,0
19.01.2019 01:00:00 12,7 3,9 9 5 22 12 NW 1021,3 -
19.01.2019 00:00:00 12,6 4,1 11 6 21 12 WNW 1021,5 0,0
18.01.2019 23:00:00 11,3 2,9 4 2 8 5 W 1021,6 0,0
18.01.2019 22:00:00 12,2 3,4 5 3 18 10 NW 1021,0 0,0
18.01.2019 21:00:00 12,1 3,4 8 4 22 12 WNW 1020,8 0,0
18.01.2019 20:00:00 12,7 3,0 7 4 21 11 WNW 1020,5 0,0
18.01.2019 19:00:00 13,4 3,4 6 4 17 9 NW 1020,1 -
18.01.2019 18:00:00 14,7 3,8 7 4 18 10 NNW 1019,8 0,0
18.01.2019 17:00:00 15,9 4,3 8 4 19 10 NW 1019,4 0,0
18.01.2019 16:00:00 15,9 5,8 7 4 21 12 WNW 1019,8 0,0
18.01.2019 15:00:00 16,2 6,5 10 6 19 10 W 1020,0 0,0
18.01.2019 14:00:00 16,4 6,8 8 4 18 10 W 1020,8 0,0
18.01.2019 13:00:00 14,0 5,3 9 5 16 9 WNW 1021,8 -
18.01.2019 12:00:00 12,0 5,5 8 4 - - WNW 1022,3 -
18.01.2019 11:00:00 10,6 4,5 12 6 21 11 W 1022,4 0,0
18.01.2019 10:00:00 9,3 4,6 8 5 18 10 WNW 1022,1 0,0
18.01.2019 09:00:00 9,1 4,5 7 4 19 10 NW 1021,6 0,0
18.01.2019 08:00:00 8,4 4,5 10 5 15 8 WNW 1021,1 0,0
18.01.2019 07:00:00 8,1 4,1 6 3 16 9 WNW 1020,4 -
18.01.2019 06:00:00 8,5 4,1 7 4 14 8 WNW 1020,1 0,0
18.01.2019 05:00:00 9,1 4,6 9 5 16 9 WNW 1020,1 0,0
18.01.2019 04:00:00 9,5 5,0 6 3 18 10 WNW 1020,3 0,0
18.01.2019 03:00:00 9,1 5,1 8 4 16 9 W 1020,0 0,0
18.01.2019 02:00:00 9,4 5,5 10 5 19 10 W 1019,9 0,0
18.01.2019 01:00:00 9,2 4,8 13 7 18 10 W 1020,3 -
18.01.2019 00:00:00 10,9 4,6 9 5 15 8 W 1020,3 0,0
17.01.2019 23:00:00 10,9 5,0 7 4 11 6 WNW 1020,0 0,0
17.01.2019 22:00:00 11,5 5,0 5 3 11 6 WNW 1019,6 0,0
17.01.2019 21:00:00 12,7 5,3 3 2 15 8 NW 1019,4 0,0
17.01.2019 20:00:00 12,9 4,6 6 3 17 9 NW 1018,8 0,0
17.01.2019 19:00:00 13,6 4,1 5 3 17 9 NW 1018,2 -
17.01.2019 18:00:00 14,8 4,1 9 5 24 13 NW 1017,7 0,0
17.01.2019 17:00:00 15,8 2,9 11 6 23 12 WNW 1017,5 0,0
17.01.2019 16:00:00 16,2 2,9 9 5 22 12 NW 1017,3 0,0
17.01.2019 15:00:00 17,8 3,6 10 5 25 14 NNW 1017,2 0,0
17.01.2019 14:00:00 17,8 3,6 9 5 25 14 NW 1017,9 0,0
17.01.2019 13:00:00 15,8 7,3 11 6 26 14 W 1018,9 -
17.01.2019 12:00:00 15,1 7,6 13 7 27 14 W 1019,8 0,0
17.01.2019 11:00:00 12,6 7,3 8 5 15 8 W 1020,1 0,0
17.01.2019 10:00:00 11,1 6,4 8 5 16 8 WNW 1019,7 0,0
17.01.2019 09:00:00 10,4 5,3 10 5 16 9 WNW 1019,2 0,0
17.01.2019 08:00:00 10,1 5,5 6 4 12 6 WNW 1018,9 0,0
17.01.2019 07:00:00 11,0 5,8 7 4 13 7 NW 1018,5 -
17.01.2019 06:00:00 11,1 5,5 9 5 12 7 WNW 1018,7 0,0
17.01.2019 05:00:00 10,9 5,0 7 4 12 6 NW 1018,9 0,0
17.01.2019 04:00:00 11,3 4,8 6 3 11 6 NW 1019,1 0,0
17.01.2019 03:00:00 11,7 5,1 7 4 13 7 WNW 1019,5 0,0
17.01.2019 02:00:00 11,4 4,8 6 4 13 7 NW 1019,9 0,0
17.01.2019 01:00:00 11,2 4,6 4 2 11 6 NW 1020,5 -
17.01.2019 00:00:00 11,2 4,6 5 3 9 5 WNW 1020,7 0,0
16.01.2019 23:00:00 10,8 4,3 4 2 11 6 WNW 1020,7 0,0
16.01.2019 22:00:00 12,0 5,0 6 3 10 6 NW 1020,4 0,0
16.01.2019 21:00:00 11,8 5,0 3 2 8 5 WNW 1020,1 0,0
16.01.2019 20:00:00 12,9 6,2 4 2 11 6 WNW 1019,5 0,0
16.01.2019 19:00:00 14,3 7,8 5 3 10 6 NE 1019,0 -
16.01.2019 18:00:00 16,5 4,1 3 2 12 6 NNE 1018,5 0,0
16.01.2019 17:00:00 17,8 6,1 9 5 19 11 NNE 1018,5 0,0
16.01.2019 16:00:00 18,9 8,0 5 3 21 11 SSW 1018,6 0,0
16.01.2019 15:00:00 19,0 7,4 10 5 19 11 S 1019,0 0,0
16.01.2019 14:00:00 19,2 6,7 6 4 18 10 SW 1019,9 0,0
16.01.2019 13:00:00 18,4 8,7 13 7 18 10 WSW 1020,9 -
16.01.2019 12:00:00 16,5 9,9 9 5 13 7 W 1022,4 0,0
16.01.2019 11:00:00 12,4 9,9 7 4 11 6 WNW 1023,0 0,0
16.01.2019 10:00:00 10,6 8,9 9 5 13 7 WNW 1022,6 0,0
16.01.2019 09:00:00 9,6 8,3 9 5 16 8 WNW 1022,4 0,0
16.01.2019 08:00:00 9,5 8,1 9 5 13 7 W 1022,3 0,0
16.01.2019 07:00:00 10,5 8,8 5 3 11 6 W 1021,9 -
16.01.2019 06:00:00 10,6 8,7 4 2 10 6 NW 1022,0 0,0
16.01.2019 05:00:00 10,4 8,7 8 4 13 7 WNW 1022,3 0,0
16.01.2019 04:00:00 10,4 9,2 6 3 10 5 NW 1022,6 0,0
16.01.2019 03:00:00 10,3 9,0 6 3 10 6 WNW 1022,9 0,0
16.01.2019 02:00:00 10,2 8,9 5 3 9 5 W 1023,0 0,0
16.01.2019 01:00:00 10,8 9,6 3 2 9 5 NW 1023,5 -
16.01.2019 00:00:00 10,7 9,4 4 2 6 3 W 1023,7 0,0
15.01.2019 23:00:00 10,9 9,7 3 1 7 4 NNW 1023,5 0,0
15.01.2019 22:00:00 11,4 9,9 0 0 4 2 W 1023,2 0,0
15.01.2019 21:00:00 12,4 10,6 1 0 5 3 NNE 1022,9 0,0
15.01.2019 20:00:00 13,0 10,8 4 2 5 3 NE 1022,5 0,0
15.01.2019 19:00:00 14,1 11,1 3 2 7 4 SE 1022,1 -
15.01.2019 18:00:00 14,9 10,6 4 2 9 5 SSE 1021,8 0,0
15.01.2019 17:00:00 15,9 11,1 5 3 10 6 E 1021,7 0,0
15.01.2019 16:00:00 15,8 11,2 6 3 13 7 ESE 1021,6 0,0
15.01.2019 15:00:00 16,1 10,9 9 5 13 7 ESE 1021,6 0,0
15.01.2019 14:00:00 16,1 9,6 8 4 12 6 SSW 1022,0 0,0
15.01.2019 13:00:00 15,7 7,4 5 3 9 5 WSW 1023,1 -
15.01.2019 12:00:00 14,0 5,9 3 2 11 6 W 1023,8 0,0
15.01.2019 11:00:00 12,3 4,3 6 3 11 6 NW 1023,6 0,0
15.01.2019 10:00:00 10,1 3,2 8 5 13 7 W 1023,0 0,0
15.01.2019 09:00:00 9,6 1,5 7 4 - - W 1022,1 -
15.01.2019 08:00:00 - - - - - - - - -
15.01.2019 07:00:00 - - - - - - - - -
15.01.2019 06:00:00 12,0 1,7 9 5 19 10 W 1020,6 0,0
15.01.2019 05:00:00 12,3 1,9 10 6 16 9 W 1020,7 0,0
15.01.2019 04:00:00 11,7 1,3 8 4 11 6 WNW 1021,1 0,0
15.01.2019 03:00:00 12,1 1,1 3 2 11 6 NW 1021,0 0,0
15.01.2019 02:00:00 12,6 0,6 9 5 21 12 W 1020,6 0,0
15.01.2019 01:00:00 12,7 -0,3 14 8 24 13 W 1020,2 -
15.01.2019 00:00:00 14,2 0,0 15 8 28 15 W 1020,2 0,0
14.01.2019 23:00:00 14,6 0,4 17 9 28 15 W 1020,0 0,0
14.01.2019 22:00:00 14,5 0,4 15 8 26 14 W 1020,0 0,0
14.01.2019 21:00:00 15,1 0,2 15 8 25 13 W 1020,0 0,0
14.01.2019 20:00:00 15,7 0,6 16 9 23 12 W 1019,8 0,0
14.01.2019 19:00:00 17,3 1,7 13 7 26 14 W 1019,3 -
14.01.2019 18:00:00 19,8 2,7 11 6 28 15 W 1019,0 0,0
14.01.2019 17:00:00 21,4 2,7 16 9 30 16 WNW 1018,6 0,0
14.01.2019 16:00:00 21,7 2,5 19 10 32 17 WNW 1018,9 0,0
14.01.2019 15:00:00 22,4 2,5 14 8 32 17 W 1019,0 0,0
14.01.2019 14:00:00 22,3 3,4 22 12 34 19 W 1019,8 0,0
14.01.2019 13:00:00 - - - - - - - - -
14.01.2019 12:00:00 18,1 2,9 13 7 24 13 W 1022,9 0,0

tt = Température de l'air
td = dewpoint
ff = Vitesse du vent
fx = gusts
dd = Direction du vent
ppp = reduced air pressure
rr = Quantités de précipitations

stations d'obs. à proximité